sensor_id;sensor_type;location;lat;lon;timestamp;P1;durP1;ratioP1;P2;durP2;ratioP2
16478;SDS011;8350;52.316;10.530;2022-09-20T00:01:03;7.13;;;2.83;;
16478;SDS011;8350;52.316;10.530;2022-09-20T00:03:32;13.35;;;3.38;;
16478;SDS011;8350;52.316;10.530;2022-09-20T00:06:00;8.55;;;2.83;;
16478;SDS011;8350;52.316;10.530;2022-09-20T00:08:27;9.60;;;3.45;;
16478;SDS011;8350;52.316;10.530;2022-09-20T00:10:56;8.70;;;3.33;;
16478;SDS011;8350;52.316;10.530;2022-09-20T00:13:28;9.02;;;3.05;;
16478;SDS011;8350;52.316;10.530;2022-09-20T00:15:56;9.07;;;3.47;;
16478;SDS011;8350;52.316;10.530;2022-09-20T00:18:23;13.32;;;3.67;;
16478;SDS011;8350;52.316;10.530;2022-09-20T00:20:50;9.35;;;3.67;;
16478;SDS011;8350;52.316;10.530;2022-09-20T00:23:18;13.15;;;3.53;;
16478;SDS011;8350;52.316;10.530;2022-09-20T00:25:47;11.77;;;2.95;;
16478;SDS011;8350;52.316;10.530;2022-09-20T00:28:20;10.23;;;2.72;;
16478;SDS011;8350;52.316;10.530;2022-09-20T00:30:48;9.40;;;3.20;;
16478;SDS011;8350;52.316;10.530;2022-09-20T00:33:16;8.77;;;3.33;;
16478;SDS011;8350;52.316;10.530;2022-09-20T00:35:43;10.90;;;2.97;;
16478;SDS011;8350;52.316;10.530;2022-09-20T00:38:09;10.68;;;3.05;;
16478;SDS011;8350;52.316;10.530;2022-09-20T00:40:37;9.93;;;3.33;;
16478;SDS011;8350;52.316;10.530;2022-09-20T00:43:04;5.07;;;2.70;;
16478;SDS011;8350;52.316;10.530;2022-09-20T00:45:32;8.73;;;2.88;;
16478;SDS011;8350;52.316;10.530;2022-09-20T00:48:04;10.50;;;3.25;;
16478;SDS011;8350;52.316;10.530;2022-09-20T00:50:37;9.45;;;2.80;;
16478;SDS011;8350;52.316;10.530;2022-09-20T00:53:08;7.82;;;3.10;;
16478;SDS011;8350;52.316;10.530;2022-09-20T00:55:39;8.55;;;3.25;;
16478;SDS011;8350;52.316;10.530;2022-09-20T00:58:10;8.85;;;3.05;;
16478;SDS011;8350;52.316;10.530;2022-09-20T01:00:38;10.07;;;3.25;;
16478;SDS011;8350;52.316;10.530;2022-09-20T01:03:08;5.32;;;3.25;;
16478;SDS011;8350;52.316;10.530;2022-09-20T01:05:37;9.50;;;2.63;;
16478;SDS011;8350;52.316;10.530;2022-09-20T01:08:05;8.85;;;3.83;;
16478;SDS011;8350;52.316;10.530;2022-09-20T01:10:34;9.00;;;3.38;;
16478;SDS011;8350;52.316;10.530;2022-09-20T01:13:02;7.68;;;2.65;;
16478;SDS011;8350;52.316;10.530;2022-09-20T01:15:29;9.73;;;4.40;;
16478;SDS011;8350;52.316;10.530;2022-09-20T01:17:59;8.07;;;3.88;;
16478;SDS011;8350;52.316;10.530;2022-09-20T01:20:29;9.63;;;3.97;;
16478;SDS011;8350;52.316;10.530;2022-09-20T01:23:11;8.55;;;3.97;;
16478;SDS011;8350;52.316;10.530;2022-09-20T01:26:10;10.98;;;3.92;;
16478;SDS011;8350;52.316;10.530;2022-09-20T01:29:17;11.90;;;4.22;;
16478;SDS011;8350;52.316;10.530;2022-09-20T01:31:59;9.95;;;4.03;;
16478;SDS011;8350;52.316;10.530;2022-09-20T01:34:28;13.00;;;4.68;;
16478;SDS011;8350;52.316;10.530;2022-09-20T01:37:01;11.90;;;4.88;;
16478;SDS011;8350;52.316;10.530;2022-09-20T01:39:34;11.30;;;4.80;;
16478;SDS011;8350;52.316;10.530;2022-09-20T01:42:08;11.25;;;4.45;;
16478;SDS011;8350;52.316;10.530;2022-09-20T01:44:39;10.32;;;4.57;;
16478;SDS011;8350;52.316;10.530;2022-09-20T01:47:27;17.08;;;5.10;;
16478;SDS011;8350;52.316;10.530;2022-09-20T01:50:01;16.58;;;4.82;;
16478;SDS011;8350;52.316;10.530;2022-09-20T01:52:37;10.90;;;4.85;;
16478;SDS011;8350;52.316;10.530;2022-09-20T01:55:28;8.88;;;4.35;;
16478;SDS011;8350;52.316;10.530;2022-09-20T02:01:21;11.52;;;4.35;;
16478;SDS011;8350;52.316;10.530;2022-09-20T02:04:09;9.25;;;4.72;;
16478;SDS011;8350;52.316;10.530;2022-09-20T02:07:03;9.55;;;4.63;;
16478;SDS011;8350;52.316;10.530;2022-09-20T02:12:52;14.55;;;5.20;;
16478;SDS011;8350;52.316;10.530;2022-09-20T02:15:27;11.95;;;5.60;;
16478;SDS011;8350;52.316;10.530;2022-09-20T02:18:08;10.52;;;4.85;;
16478;SDS011;8350;52.316;10.530;2022-09-20T02:20:46;17.58;;;6.50;;
16478;SDS011;8350;52.316;10.530;2022-09-20T02:23:20;13.65;;;7.70;;
16478;SDS011;8350;52.316;10.530;2022-09-20T02:26:02;17.05;;;7.78;;
16478;SDS011;8350;52.316;10.530;2022-09-20T02:28:42;20.95;;;8.82;;
16478;SDS011;8350;52.316;10.530;2022-09-20T02:31:22;14.32;;;9.02;;
16478;SDS011;8350;52.316;10.530;2022-09-20T02:37:06;19.65;;;9.93;;
16478;SDS011;8350;52.316;10.530;2022-09-20T02:39:51;22.27;;;10.77;;
16478;SDS011;8350;52.316;10.530;2022-09-20T02:42:30;19.60;;;10.95;;
16478;SDS011;8350;52.316;10.530;2022-09-20T02:45:06;20.85;;;10.52;;
16478;SDS011;8350;52.316;10.530;2022-09-20T02:47:36;21.88;;;11.98;;
16478;SDS011;8350;52.316;10.530;2022-09-20T02:50:10;19.35;;;12.35;;
16478;SDS011;8350;52.316;10.530;2022-09-20T02:52:50;17.48;;;11.30;;
16478;SDS011;8350;52.316;10.530;2022-09-20T02:55:33;20.13;;;12.10;;
16478;SDS011;8350;52.316;10.530;2022-09-20T02:58:11;24.95;;;12.20;;
16478;SDS011;8350;52.316;10.530;2022-09-20T03:00:51;22.35;;;12.77;;
16478;SDS011;8350;52.316;10.530;2022-09-20T03:03:23;16.27;;;11.45;;
16478;SDS011;8350;52.316;10.530;2022-09-20T03:06:04;19.10;;;12.35;;
16478;SDS011;8350;52.316;10.530;2022-09-20T03:08:42;18.15;;;12.43;;
16478;SDS011;8350;52.316;10.530;2022-09-20T03:11:17;20.55;;;13.32;;
16478;SDS011;8350;52.316;10.530;2022-09-20T03:13:57;20.77;;;12.23;;
16478;SDS011;8350;52.316;10.530;2022-09-20T03:16:39;21.38;;;13.27;;
16478;SDS011;8350;52.316;10.530;2022-09-20T03:19:24;21.45;;;13.05;;
16478;SDS011;8350;52.316;10.530;2022-09-20T03:21:59;23.98;;;12.73;;
16478;SDS011;8350;52.316;10.530;2022-09-20T03:24:38;23.67;;;12.38;;
16478;SDS011;8350;52.316;10.530;2022-09-20T03:27:15;19.60;;;13.25;;
16478;SDS011;8350;52.316;10.530;2022-09-20T03:29:51;21.83;;;13.68;;
16478;SDS011;8350;52.316;10.530;2022-09-20T03:32:33;26.85;;;13.95;;
16478;SDS011;8350;52.316;10.530;2022-09-20T03:35:15;22.38;;;12.48;;
16478;SDS011;8350;52.316;10.530;2022-09-20T03:37:58;21.42;;;12.15;;
16478;SDS011;8350;52.316;10.530;2022-09-20T03:40:54;21.35;;;12.60;;
16478;SDS011;8350;52.316;10.530;2022-09-20T03:43:53;23.05;;;13.20;;
16478;SDS011;8350;52.316;10.530;2022-09-20T03:46:32;25.40;;;13.82;;
16478;SDS011;8350;52.316;10.530;2022-09-20T03:52:12;23.77;;;12.45;;
16478;SDS011;8350;52.316;10.530;2022-09-20T03:58:08;24.35;;;13.57;;
16478;SDS011;8350;52.316;10.530;2022-09-20T04:00:55;26.20;;;13.43;;
16478;SDS011;8350;52.316;10.530;2022-09-20T04:03:35;25.25;;;13.70;;
16478;SDS011;8350;52.316;10.530;2022-09-20T04:06:21;23.77;;;13.77;;
16478;SDS011;8350;52.316;10.530;2022-09-20T04:09:21;24.50;;;13.40;;
16478;SDS011;8350;52.316;10.530;2022-09-20T04:12:13;21.83;;;13.95;;
16478;SDS011;8350;52.316;10.530;2022-09-20T04:14:54;24.90;;;15.70;;
16478;SDS011;8350;52.316;10.530;2022-09-20T04:17:30;24.27;;;14.88;;
16478;SDS011;8350;52.316;10.530;2022-09-20T04:20:12;31.98;;;16.60;;
16478;SDS011;8350;52.316;10.530;2022-09-20T04:22:44;28.05;;;15.30;;
16478;SDS011;8350;52.316;10.530;2022-09-20T04:25:17;26.08;;;16.55;;
16478;SDS011;8350;52.316;10.530;2022-09-20T04:27:49;29.27;;;16.55;;
16478;SDS011;8350;52.316;10.530;2022-09-20T04:30:21;24.73;;;15.80;;
16478;SDS011;8350;52.316;10.530;2022-09-20T04:32:55;27.48;;;15.55;;
16478;SDS011;8350;52.316;10.530;2022-09-20T04:35:32;26.77;;;17.75;;
16478;SDS011;8350;52.316;10.530;2022-09-20T04:38:24;20.92;;;14.18;;
16478;SDS011;8350;52.316;10.530;2022-09-20T04:41:07;25.17;;;15.27;;
16478;SDS011;8350;52.316;10.530;2022-09-20T04:47:01;28.02;;;15.27;;
16478;SDS011;8350;52.316;10.530;2022-09-20T04:55:52;28.67;;;15.27;;
16478;SDS011;8350;52.316;10.530;2022-09-20T04:58:37;26.55;;;16.38;;
16478;SDS011;8350;52.316;10.530;2022-09-20T05:10:47;30.80;;;16.00;;
16478;SDS011;8350;52.316;10.530;2022-09-20T05:13:37;25.55;;;14.15;;
16478;SDS011;8350;52.316;10.530;2022-09-20T05:16:17;27.25;;;13.93;;
16478;SDS011;8350;52.316;10.530;2022-09-20T05:25:03;32.08;;;16.58;;
16478;SDS011;8350;52.316;10.530;2022-09-20T05:27:48;28.27;;;16.98;;
16478;SDS011;8350;52.316;10.530;2022-09-20T05:30:21;27.92;;;16.30;;
16478;SDS011;8350;52.316;10.530;2022-09-20T05:32:57;33.33;;;18.25;;
16478;SDS011;8350;52.316;10.530;2022-09-20T05:35:37;28.30;;;17.73;;
16478;SDS011;8350;52.316;10.530;2022-09-20T05:38:12;34.05;;;18.35;;
16478;SDS011;8350;52.316;10.530;2022-09-20T05:40:51;28.27;;;17.05;;
16478;SDS011;8350;52.316;10.530;2022-09-20T05:43:30;33.47;;;18.67;;
16478;SDS011;8350;52.316;10.530;2022-09-20T05:46:02;30.80;;;17.02;;
16478;SDS011;8350;52.316;10.530;2022-09-20T05:48:43;30.15;;;17.30;;
16478;SDS011;8350;52.316;10.530;2022-09-20T05:51:22;26.00;;;16.35;;
16478;SDS011;8350;52.316;10.530;2022-09-20T05:54:24;33.85;;;19.65;;
16478;SDS011;8350;52.316;10.530;2022-09-20T05:57:12;30.50;;;17.98;;
16478;SDS011;8350;52.316;10.530;2022-09-20T05:59:50;30.73;;;17.98;;
16478;SDS011;8350;52.316;10.530;2022-09-20T06:02:27;31.73;;;17.83;;
16478;SDS011;8350;52.316;10.530;2022-09-20T06:05:01;34.05;;;18.67;;
16478;SDS011;8350;52.316;10.530;2022-09-20T06:07:39;31.20;;;18.15;;
16478;SDS011;8350;52.316;10.530;2022-09-20T06:10:21;32.15;;;17.73;;
16478;SDS011;8350;52.316;10.530;2022-09-20T06:13:00;27.65;;;16.08;;
16478;SDS011;8350;52.316;10.530;2022-09-20T06:15:39;32.47;;;17.15;;
16478;SDS011;8350;52.316;10.530;2022-09-20T06:18:17;32.08;;;17.38;;
16478;SDS011;8350;52.316;10.530;2022-09-20T06:20:51;29.38;;;19.05;;
16478;SDS011;8350;52.316;10.530;2022-09-20T06:23:28;27.98;;;16.88;;
16478;SDS011;8350;52.316;10.530;2022-09-20T06:25:58;27.63;;;16.33;;
16478;SDS011;8350;52.316;10.530;2022-09-20T06:28:28;27.10;;;15.90;;
16478;SDS011;8350;52.316;10.530;2022-09-20T06:30:59;25.25;;;15.10;;
16478;SDS011;8350;52.316;10.530;2022-09-20T06:33:37;23.25;;;14.35;;
16478;SDS011;8350;52.316;10.530;2022-09-20T06:36:09;24.88;;;14.73;;
16478;SDS011;8350;52.316;10.530;2022-09-20T06:38:57;21.60;;;14.30;;
16478;SDS011;8350;52.316;10.530;2022-09-20T06:41:52;21.85;;;13.68;;
16478;SDS011;8350;52.316;10.530;2022-09-20T06:44:20;24.90;;;14.43;;
16478;SDS011;8350;52.316;10.530;2022-09-20T06:46:47;28.50;;;14.40;;
16478;SDS011;8350;52.316;10.530;2022-09-20T06:49:17;19.00;;;11.23;;
16478;SDS011;8350;52.316;10.530;2022-09-20T06:51:44;20.00;;;13.23;;
16478;SDS011;8350;52.316;10.530;2022-09-20T06:54:15;18.05;;;12.32;;
16478;SDS011;8350;52.316;10.530;2022-09-20T06:56:44;19.80;;;12.70;;
16478;SDS011;8350;52.316;10.530;2022-09-20T06:59:13;17.33;;;11.73;;
16478;SDS011;8350;52.316;10.530;2022-09-20T07:01:40;19.48;;;12.15;;
16478;SDS011;8350;52.316;10.530;2022-09-20T07:04:08;22.33;;;12.15;;
16478;SDS011;8350;52.316;10.530;2022-09-20T07:06:35;19.08;;;13.02;;
16478;SDS011;8350;52.316;10.530;2022-09-20T07:09:02;21.20;;;12.57;;
16478;SDS011;8350;52.316;10.530;2022-09-20T07:11:29;13.95;;;11.10;;
16478;SDS011;8350;52.316;10.530;2022-09-20T07:13:59;16.65;;;11.93;;
16478;SDS011;8350;52.316;10.530;2022-09-20T07:16:28;15.55;;;10.65;;
16478;SDS011;8350;52.316;10.530;2022-09-20T07:18:54;17.42;;;11.48;;
16478;SDS011;8350;52.316;10.530;2022-09-20T07:21:21;18.65;;;13.00;;
16478;SDS011;8350;52.316;10.530;2022-09-20T07:23:49;18.35;;;12.05;;
16478;SDS011;8350;52.316;10.530;2022-09-20T07:26:19;14.30;;;11.00;;
16478;SDS011;8350;52.316;10.530;2022-09-20T07:28:47;16.38;;;11.52;;
16478;SDS011;8350;52.316;10.530;2022-09-20T07:31:15;19.35;;;12.10;;
16478;SDS011;8350;52.316;10.530;2022-09-20T07:33:50;20.23;;;11.77;;
16478;SDS011;8350;52.316;10.530;2022-09-20T07:36:17;17.50;;;11.70;;
16478;SDS011;8350;52.316;10.530;2022-09-20T07:38:46;16.48;;;11.43;;
16478;SDS011;8350;52.316;10.530;2022-09-20T07:41:14;14.80;;;10.65;;
16478;SDS011;8350;52.316;10.530;2022-09-20T07:43:43;15.90;;;10.82;;
16478;SDS011;8350;52.316;10.530;2022-09-20T07:46:10;13.77;;;10.93;;
16478;SDS011;8350;52.316;10.530;2022-09-20T07:48:38;12.40;;;8.75;;
16478;SDS011;8350;52.316;10.530;2022-09-20T07:51:07;10.68;;;8.38;;
16478;SDS011;8350;52.316;10.530;2022-09-20T07:53:36;15.95;;;10.18;;
16478;SDS011;8350;52.316;10.530;2022-09-20T07:56:05;11.98;;;9.50;;
16478;SDS011;8350;52.316;10.530;2022-09-20T07:58:33;9.40;;;8.43;;
16478;SDS011;8350;52.316;10.530;2022-09-20T08:01:02;10.48;;;8.40;;
16478;SDS011;8350;52.316;10.530;2022-09-20T08:03:30;10.73;;;8.15;;
16478;SDS011;8350;52.316;10.530;2022-09-20T08:05:58;11.60;;;8.52;;
16478;SDS011;8350;52.316;10.530;2022-09-20T08:08:30;10.80;;;7.90;;
16478;SDS011;8350;52.316;10.530;2022-09-20T08:11:01;8.93;;;8.02;;
16478;SDS011;8350;52.316;10.530;2022-09-20T08:13:30;9.52;;;7.63;;
16478;SDS011;8350;52.316;10.530;2022-09-20T08:16:03;9.77;;;7.93;;
16478;SDS011;8350;52.316;10.530;2022-09-20T08:18:32;11.88;;;7.97;;
16478;SDS011;8350;52.316;10.530;2022-09-20T08:21:01;8.48;;;7.47;;
16478;SDS011;8350;52.316;10.530;2022-09-20T08:23:33;10.70;;;8.30;;
16478;SDS011;8350;52.316;10.530;2022-09-20T08:26:01;8.57;;;7.68;;
16478;SDS011;8350;52.316;10.530;2022-09-20T08:28:28;9.50;;;7.38;;
16478;SDS011;8350;52.316;10.530;2022-09-20T08:30:59;9.32;;;8.02;;
16478;SDS011;8350;52.316;10.530;2022-09-20T08:33:27;8.82;;;7.72;;
16478;SDS011;8350;52.316;10.530;2022-09-20T08:35:54;8.70;;;7.72;;
16478;SDS011;8350;52.316;10.530;2022-09-20T08:38:20;8.57;;;6.65;;
16478;SDS011;8350;52.316;10.530;2022-09-20T08:40:52;9.43;;;7.35;;
16478;SDS011;8350;52.316;10.530;2022-09-20T08:43:23;9.18;;;7.00;;
16478;SDS011;8350;52.316;10.530;2022-09-20T08:45:54;7.80;;;6.32;;
16478;SDS011;8350;52.316;10.530;2022-09-20T08:48:23;6.85;;;6.13;;
16478;SDS011;8350;52.316;10.530;2022-09-20T08:50:56;9.52;;;6.22;;
16478;SDS011;8350;52.316;10.530;2022-09-20T08:53:23;6.32;;;5.68;;
16478;SDS011;8350;52.316;10.530;2022-09-20T08:55:54;5.82;;;5.20;;
16478;SDS011;8350;52.316;10.530;2022-09-20T08:58:23;6.15;;;5.03;;
16478;SDS011;8350;52.316;10.530;2022-09-20T09:00:51;6.20;;;4.68;;
16478;SDS011;8350;52.316;10.530;2022-09-20T09:03:22;6.15;;;4.55;;
16478;SDS011;8350;52.316;10.530;2022-09-20T09:05:49;5.15;;;4.65;;
16478;SDS011;8350;52.316;10.530;2022-09-20T09:08:18;4.93;;;4.53;;
16478;SDS011;8350;52.316;10.530;2022-09-20T09:10:47;6.82;;;4.13;;
16478;SDS011;8350;52.316;10.530;2022-09-20T09:13:21;5.53;;;3.65;;
16478;SDS011;8350;52.316;10.530;2022-09-20T09:15:53;5.35;;;3.90;;
16478;SDS011;8350;52.316;10.530;2022-09-20T09:18:24;6.57;;;3.90;;
16478;SDS011;8350;52.316;10.530;2022-09-20T09:20:57;4.38;;;3.78;;
16478;SDS011;8350;52.316;10.530;2022-09-20T09:23:28;4.20;;;3.80;;
16478;SDS011;8350;52.316;10.530;2022-09-20T09:26:00;6.00;;;3.95;;
16478;SDS011;8350;52.316;10.530;2022-09-20T09:28:30;4.55;;;3.50;;
16478;SDS011;8350;52.316;10.530;2022-09-20T09:31:10;5.30;;;3.33;;
16478;SDS011;8350;52.316;10.530;2022-09-20T09:33:41;4.32;;;3.17;;
16478;SDS011;8350;52.316;10.530;2022-09-20T09:36:12;5.50;;;3.45;;
16478;SDS011;8350;52.316;10.530;2022-09-20T09:38:41;3.33;;;3.03;;
16478;SDS011;8350;52.316;10.530;2022-09-20T09:41:19;4.25;;;3.17;;
16478;SDS011;8350;52.316;10.530;2022-09-20T09:43:57;3.75;;;3.03;;
16478;SDS011;8350;52.316;10.530;2022-09-20T09:46:26;6.25;;;2.88;;
16478;SDS011;8350;52.316;10.530;2022-09-20T09:49:04;4.80;;;3.00;;
16478;SDS011;8350;52.316;10.530;2022-09-20T09:51:34;3.80;;;2.97;;
16478;SDS011;8350;52.316;10.530;2022-09-20T09:54:02;3.53;;;2.83;;
16478;SDS011;8350;52.316;10.530;2022-09-20T10:02:37;4.65;;;2.70;;
16478;SDS011;8350;52.316;10.530;2022-09-20T10:05:23;3.05;;;2.60;;
16478;SDS011;8350;52.316;10.530;2022-09-20T10:07:55;2.53;;;2.22;;
16478;SDS011;8350;52.316;10.530;2022-09-20T10:10:37;5.75;;;2.65;;
16478;SDS011;8350;52.316;10.530;2022-09-20T10:13:16;3.42;;;2.22;;
16478;SDS011;8350;52.316;10.530;2022-09-20T10:15:54;2.78;;;2.50;;
16478;SDS011;8350;52.316;10.530;2022-09-20T10:18:29;2.25;;;1.73;;
16478;SDS011;8350;52.316;10.530;2022-09-20T10:21:07;2.72;;;2.00;;
16478;SDS011;8350;52.316;10.530;2022-09-20T10:23:47;2.55;;;1.95;;
16478;SDS011;8350;52.316;10.530;2022-09-20T10:26:37;2.33;;;1.92;;
16478;SDS011;8350;52.316;10.530;2022-09-20T10:29:29;2.40;;;1.90;;
16478;SDS011;8350;52.316;10.530;2022-09-20T10:32:06;3.53;;;2.35;;
16478;SDS011;8350;52.316;10.530;2022-09-20T10:35:03;3.55;;;2.20;;
16478;SDS011;8350;52.316;10.530;2022-09-20T10:37:40;2.88;;;1.98;;
16478;SDS011;8350;52.316;10.530;2022-09-20T10:40:20;2.47;;;1.50;;
16478;SDS011;8350;52.316;10.530;2022-09-20T10:43:18;2.65;;;2.00;;
16478;SDS011;8350;52.316;10.530;2022-09-20T10:45:57;2.15;;;1.52;;
16478;SDS011;8350;52.316;10.530;2022-09-20T10:48:36;2.28;;;1.33;;
16478;SDS011;8350;52.316;10.530;2022-09-20T10:51:09;2.55;;;1.30;;
16478;SDS011;8350;52.316;10.530;2022-09-20T10:53:42;3.88;;;1.20;;
16478;SDS011;8350;52.316;10.530;2022-09-20T10:56:21;2.45;;;1.30;;
16478;SDS011;8350;52.316;10.530;2022-09-20T11:01:51;2.33;;;1.27;;
16478;SDS011;8350;52.316;10.530;2022-09-20T11:04:34;1.98;;;1.05;;
16478;SDS011;8350;52.316;10.530;2022-09-20T11:07:17;1.45;;;1.35;;
16478;SDS011;8350;52.316;10.530;2022-09-20T11:09:53;1.30;;;0.90;;
16478;SDS011;8350;52.316;10.530;2022-09-20T11:12:23;4.72;;;1.00;;
16478;SDS011;8350;52.316;10.530;2022-09-20T11:14:56;1.40;;;1.02;;
16478;SDS011;8350;52.316;10.530;2022-09-20T11:17:29;1.65;;;1.00;;
16478;SDS011;8350;52.316;10.530;2022-09-20T11:20:04;3.15;;;1.00;;
16478;SDS011;8350;52.316;10.530;2022-09-20T11:22:41;1.10;;;0.98;;
16478;SDS011;8350;52.316;10.530;2022-09-20T11:25:13;3.30;;;0.95;;
16478;SDS011;8350;52.316;10.530;2022-09-20T11:27:43;1.20;;;0.90;;
16478;SDS011;8350;52.316;10.530;2022-09-20T11:30:13;1.17;;;0.80;;
16478;SDS011;8350;52.316;10.530;2022-09-20T11:32:45;1.67;;;0.90;;
16478;SDS011;8350;52.316;10.530;2022-09-20T11:35:21;2.70;;;0.55;;
16478;SDS011;8350;52.316;10.530;2022-09-20T11:37:56;1.05;;;0.45;;
16478;SDS011;8350;52.316;10.530;2022-09-20T11:40:30;1.35;;;0.50;;
16478;SDS011;8350;52.316;10.530;2022-09-20T11:43:00;1.45;;;0.57;;
16478;SDS011;8350;52.316;10.530;2022-09-20T11:45:31;0.98;;;0.60;;
16478;SDS011;8350;52.316;10.530;2022-09-20T11:48:01;4.60;;;0.88;;
16478;SDS011;8350;52.316;10.530;2022-09-20T11:50:55;2.67;;;0.73;;
16478;SDS011;8350;52.316;10.530;2022-09-20T11:53:55;3.05;;;0.90;;
16478;SDS011;8350;52.316;10.530;2022-09-20T11:56:40;1.35;;;0.80;;
16478;SDS011;8350;52.316;10.530;2022-09-20T11:59:20;1.92;;;0.65;;
16478;SDS011;8350;52.316;10.530;2022-09-20T12:01:53;0.73;;;0.20;;
16478;SDS011;8350;52.316;10.530;2022-09-20T12:04:24;1.48;;;0.30;;
16478;SDS011;8350;52.316;10.530;2022-09-20T12:06:58;0.75;;;0.25;;
16478;SDS011;8350;52.316;10.530;2022-09-20T12:09:28;0.68;;;0.38;;
16478;SDS011;8350;52.316;10.530;2022-09-20T12:11:57;0.60;;;0.20;;
16478;SDS011;8350;52.316;10.530;2022-09-20T12:14:26;1.95;;;0.15;;
16478;SDS011;8350;52.316;10.530;2022-09-20T12:16:56;2.55;;;0.17;;
16478;SDS011;8350;52.316;10.530;2022-09-20T12:22:16;0.93;;;0.30;;
16478;SDS011;8350;52.316;10.530;2022-09-20T12:28:00;2.13;;;0.57;;
16478;SDS011;8350;52.316;10.530;2022-09-20T12:30:27;2.20;;;0.50;;
16478;SDS011;8350;52.316;10.530;2022-09-20T12:32:57;1.75;;;0.40;;
16478;SDS011;8350;52.316;10.530;2022-09-20T12:38:39;0.88;;;0.30;;
16478;SDS011;8350;52.316;10.530;2022-09-20T12:41:19;1.13;;;0.45;;
16478;SDS011;8350;52.316;10.530;2022-09-20T12:43:52;1.15;;;0.50;;
16478;SDS011;8350;52.316;10.530;2022-09-20T12:46:32;1.55;;;0.40;;
16478;SDS011;8350;52.316;10.530;2022-09-20T12:49:18;1.30;;;0.65;;
16478;SDS011;8350;52.316;10.530;2022-09-20T12:52:19;1.95;;;0.57;;
16478;SDS011;8350;52.316;10.530;2022-09-20T12:55:10;1.02;;;0.52;;
16478;SDS011;8350;52.316;10.530;2022-09-20T12:57:51;1.10;;;0.52;;
16478;SDS011;8350;52.316;10.530;2022-09-20T13:00:28;1.67;;;0.52;;
16478;SDS011;8350;52.316;10.530;2022-09-20T13:02:59;1.65;;;0.60;;
16478;SDS011;8350;52.316;10.530;2022-09-20T13:05:34;0.88;;;0.38;;
16478;SDS011;8350;52.316;10.530;2022-09-20T13:08:09;1.85;;;0.60;;
16478;SDS011;8350;52.316;10.530;2022-09-20T13:10:43;1.42;;;0.50;;
16478;SDS011;8350;52.316;10.530;2022-09-20T13:13:22;1.05;;;0.45;;
16478;SDS011;8350;52.316;10.530;2022-09-20T13:15:54;3.05;;;0.70;;
16478;SDS011;8350;52.316;10.530;2022-09-20T13:18:22;2.33;;;0.60;;
16478;SDS011;8350;52.316;10.530;2022-09-20T13:20:51;0.77;;;0.38;;
16478;SDS011;8350;52.316;10.530;2022-09-20T13:23:21;1.60;;;0.57;;
16478;SDS011;8350;52.316;10.530;2022-09-20T13:25:52;1.73;;;0.70;;
16478;SDS011;8350;52.316;10.530;2022-09-20T13:28:30;1.70;;;0.57;;
16478;SDS011;8350;52.316;10.530;2022-09-20T13:31:19;2.05;;;0.85;;
16478;SDS011;8350;52.316;10.530;2022-09-20T13:36:38;2.25;;;0.63;;
16478;SDS011;8350;52.316;10.530;2022-09-20T13:39:05;2.42;;;0.50;;
16478;SDS011;8350;52.316;10.530;2022-09-20T13:41:34;2.47;;;0.80;;
16478;SDS011;8350;52.316;10.530;2022-09-20T13:44:02;3.25;;;0.75;;
16478;SDS011;8350;52.316;10.530;2022-09-20T13:46:29;2.83;;;0.75;;
16478;SDS011;8350;52.316;10.530;2022-09-20T13:48:58;2.95;;;0.90;;
16478;SDS011;8350;52.316;10.530;2022-09-20T13:51:38;1.65;;;0.60;;
16478;SDS011;8350;52.316;10.530;2022-09-20T13:54:18;2.55;;;0.80;;
16478;SDS011;8350;52.316;10.530;2022-09-20T13:56:52;3.67;;;0.90;;
16478;SDS011;8350;52.316;10.530;2022-09-20T13:59:21;2.08;;;0.68;;
16478;SDS011;8350;52.316;10.530;2022-09-20T14:01:49;2.20;;;0.80;;
16478;SDS011;8350;52.316;10.530;2022-09-20T14:04:19;3.58;;;0.88;;
16478;SDS011;8350;52.316;10.530;2022-09-20T14:06:48;3.22;;;1.02;;
16478;SDS011;8350;52.316;10.530;2022-09-20T14:09:19;4.00;;;0.80;;
16478;SDS011;8350;52.316;10.530;2022-09-20T14:11:52;2.83;;;0.88;;
16478;SDS011;8350;52.316;10.530;2022-09-20T14:14:20;4.03;;;1.00;;
16478;SDS011;8350;52.316;10.530;2022-09-20T14:16:49;1.65;;;0.80;;
16478;SDS011;8350;52.316;10.530;2022-09-20T14:19:22;3.00;;;0.93;;
16478;SDS011;8350;52.316;10.530;2022-09-20T14:21:55;4.15;;;1.10;;
16478;SDS011;8350;52.316;10.530;2022-09-20T14:24:25;5.03;;;0.98;;
16478;SDS011;8350;52.316;10.530;2022-09-20T14:27:01;2.50;;;0.60;;
16478;SDS011;8350;52.316;10.530;2022-09-20T14:29:40;1.05;;;0.40;;
16478;SDS011;8350;52.316;10.530;2022-09-20T14:32:10;0.88;;;0.52;;
16478;SDS011;8350;52.316;10.530;2022-09-20T14:34:49;2.25;;;0.60;;
16478;SDS011;8350;52.316;10.530;2022-09-20T14:37:24;2.35;;;0.63;;
16478;SDS011;8350;52.316;10.530;2022-09-20T14:39:53;3.00;;;1.13;;
16478;SDS011;8350;52.316;10.530;2022-09-20T14:42:25;3.22;;;0.75;;
16478;SDS011;8350;52.316;10.530;2022-09-20T14:44:55;2.20;;;0.57;;
16478;SDS011;8350;52.316;10.530;2022-09-20T14:47:24;2.40;;;0.75;;
16478;SDS011;8350;52.316;10.530;2022-09-20T14:49:53;1.10;;;0.47;;
16478;SDS011;8350;52.316;10.530;2022-09-20T14:52:28;1.02;;;0.50;;
16478;SDS011;8350;52.316;10.530;2022-09-20T14:55:02;0.82;;;0.40;;
16478;SDS011;8350;52.316;10.530;2022-09-20T14:57:43;1.90;;;0.30;;
16478;SDS011;8350;52.316;10.530;2022-09-20T15:00:11;0.68;;;0.32;;
16478;SDS011;8350;52.316;10.530;2022-09-20T15:02:39;0.95;;;0.30;;
16478;SDS011;8350;52.316;10.530;2022-09-20T15:05:15;0.93;;;0.60;;
16478;SDS011;8350;52.316;10.530;2022-09-20T15:07:44;3.33;;;0.70;;
16478;SDS011;8350;52.316;10.530;2022-09-20T15:10:14;0.93;;;0.20;;
16478;SDS011;8350;52.316;10.530;2022-09-20T15:12:42;1.25;;;0.60;;
16478;SDS011;8350;52.316;10.530;2022-09-20T15:15:10;1.65;;;0.70;;
16478;SDS011;8350;52.316;10.530;2022-09-20T15:17:40;2.03;;;0.40;;
16478;SDS011;8350;52.316;10.530;2022-09-20T15:20:11;1.58;;;0.40;;
16478;SDS011;8350;52.316;10.530;2022-09-20T15:22:40;1.65;;;0.52;;
16478;SDS011;8350;52.316;10.530;2022-09-20T15:25:11;1.05;;;0.60;;
16478;SDS011;8350;52.316;10.530;2022-09-20T15:27:44;1.45;;;0.73;;
16478;SDS011;8350;52.316;10.530;2022-09-20T15:30:13;2.83;;;0.40;;
16478;SDS011;8350;52.316;10.530;2022-09-20T15:32:41;3.20;;;0.75;;
16478;SDS011;8350;52.316;10.530;2022-09-20T15:35:08;1.92;;;0.63;;
16478;SDS011;8350;52.316;10.530;2022-09-20T15:37:35;2.00;;;0.88;;
16478;SDS011;8350;52.316;10.530;2022-09-20T15:40:03;2.75;;;0.70;;
16478;SDS011;8350;52.316;10.530;2022-09-20T15:42:31;3.75;;;0.90;;
16478;SDS011;8350;52.316;10.530;2022-09-20T15:45:03;3.30;;;0.90;;
16478;SDS011;8350;52.316;10.530;2022-09-20T15:47:33;1.23;;;0.70;;
16478;SDS011;8350;52.316;10.530;2022-09-20T15:50:00;1.05;;;0.40;;
16478;SDS011;8350;52.316;10.530;2022-09-20T15:52:31;2.03;;;0.82;;
16478;SDS011;8350;52.316;10.530;2022-09-20T15:54:58;2.45;;;0.73;;
16478;SDS011;8350;52.316;10.530;2022-09-20T15:57:27;2.10;;;0.70;;
16478;SDS011;8350;52.316;10.530;2022-09-20T15:59:55;1.55;;;0.70;;
16478;SDS011;8350;52.316;10.530;2022-09-20T16:02:24;2.88;;;1.50;;
16478;SDS011;8350;52.316;10.530;2022-09-20T16:04:52;2.72;;;1.60;;
16478;SDS011;8350;52.316;10.530;2022-09-20T16:07:20;1.95;;;1.30;;
16478;SDS011;8350;52.316;10.530;2022-09-20T16:09:51;1.50;;;1.20;;
16478;SDS011;8350;52.316;10.530;2022-09-20T16:12:19;2.25;;;1.55;;
16478;SDS011;8350;52.316;10.530;2022-09-20T16:14:46;1.63;;;1.10;;
16478;SDS011;8350;52.316;10.530;2022-09-20T16:17:13;3.42;;;1.60;;
16478;SDS011;8350;52.316;10.530;2022-09-20T16:19:42;2.53;;;1.38;;
16478;SDS011;8350;52.316;10.530;2022-09-20T16:22:10;3.08;;;1.52;;